sensor_id;sensor_type;location;lat;lon;timestamp;temperature;humidity
10300;DHT22;5195;48.562;9.192;2023-04-24T00:00:02;14.90;48.40
10300;DHT22;5195;48.562;9.192;2023-04-24T00:02:26;15.20;47.70
10300;DHT22;5195;48.562;9.192;2023-04-24T00:04:52;15.20;48.00
10300;DHT22;5195;48.562;9.192;2023-04-24T00:07:18;15.20;47.60
10300;DHT22;5195;48.562;9.192;2023-04-24T00:09:43;15.50;47.00
10300;DHT22;5195;48.562;9.192;2023-04-24T00:12:09;15.40;47.50
10300;DHT22;5195;48.562;9.192;2023-04-24T00:14:35;15.40;47.20
10300;DHT22;5195;48.562;9.192;2023-04-24T00:17:04;15.60;46.70
10300;DHT22;5195;48.562;9.192;2023-04-24T00:19:29;15.70;46.30
10300;DHT22;5195;48.562;9.192;2023-04-24T00:21:55;15.50;46.90
10300;DHT22;5195;48.562;9.192;2023-04-24T00:24:20;15.50;46.60
10300;DHT22;5195;48.562;9.192;2023-04-24T00:26:46;15.30;47.20
10300;DHT22;5195;48.562;9.192;2023-04-24T00:29:12;15.00;47.60
10300;DHT22;5195;48.562;9.192;2023-04-24T00:31:38;14.60;48.50
10300;DHT22;5195;48.562;9.192;2023-04-24T00:34:03;14.60;48.50
10300;DHT22;5195;48.562;9.192;2023-04-24T00:36:29;14.50;49.10
10300;DHT22;5195;48.562;9.192;2023-04-24T00:38:54;14.80;48.10
10300;DHT22;5195;48.562;9.192;2023-04-24T00:41:20;14.80;47.90
10300;DHT22;5195;48.562;9.192;2023-04-24T00:43:46;14.70;48.20
10300;DHT22;5195;48.562;9.192;2023-04-24T00:46:11;14.90;47.90
10300;DHT22;5195;48.562;9.192;2023-04-24T00:48:37;15.00;48.00
10300;DHT22;5195;48.562;9.192;2023-04-24T00:51:02;15.20;47.60
10300;DHT22;5195;48.562;9.192;2023-04-24T00:53:29;15.80;46.60
10300;DHT22;5195;48.562;9.192;2023-04-24T00:55:54;15.80;46.60
10300;DHT22;5195;48.562;9.192;2023-04-24T00:58:20;16.10;45.70
10300;DHT22;5195;48.562;9.192;2023-04-24T01:00:47;16.30;46.00
10300;DHT22;5195;48.562;9.192;2023-04-24T01:03:12;16.20;45.90
10300;DHT22;5195;48.562;9.192;2023-04-24T01:05:38;16.00;46.30
10300;DHT22;5195;48.562;9.192;2023-04-24T01:08:03;15.60;47.00
10300;DHT22;5195;48.562;9.192;2023-04-24T01:10:29;15.70;46.90
10300;DHT22;5195;48.562;9.192;2023-04-24T01:12:55;15.90;46.50
10300;DHT22;5195;48.562;9.192;2023-04-24T01:15:21;16.20;46.10
10300;DHT22;5195;48.562;9.192;2023-04-24T01:17:47;16.20;46.00
10300;DHT22;5195;48.562;9.192;2023-04-24T01:20:12;16.00;46.60
10300;DHT22;5195;48.562;9.192;2023-04-24T01:22:39;15.30;48.00
10300;DHT22;5195;48.562;9.192;2023-04-24T01:25:04;15.30;48.00
10300;DHT22;5195;48.562;9.192;2023-04-24T01:27:30;15.10;48.60
10300;DHT22;5195;48.562;9.192;2023-04-24T01:29:55;14.90;49.20
10300;DHT22;5195;48.562;9.192;2023-04-24T01:32:21;14.70;49.80
10300;DHT22;5195;48.562;9.192;2023-04-24T01:34:47;14.80;51.30
10300;DHT22;5195;48.562;9.192;2023-04-24T01:37:13;15.40;51.00
10300;DHT22;5195;48.562;9.192;2023-04-24T01:39:38;15.30;50.90
10300;DHT22;5195;48.562;9.192;2023-04-24T01:42:04;15.50;50.30
10300;DHT22;5195;48.562;9.192;2023-04-24T01:44:30;15.60;50.10
10300;DHT22;5195;48.562;9.192;2023-04-24T01:46:56;15.30;50.50
10300;DHT22;5195;48.562;9.192;2023-04-24T01:49:21;15.30;50.50
10300;DHT22;5195;48.562;9.192;2023-04-24T01:51:50;14.70;51.10
10300;DHT22;5195;48.562;9.192;2023-04-24T01:54:15;14.70;51.10
10300;DHT22;5195;48.562;9.192;2023-04-24T01:56:41;14.80;52.00
10300;DHT22;5195;48.562;9.192;2023-04-24T01:59:06;15.00;51.70
10300;DHT22;5195;48.562;9.192;2023-04-24T02:01:35;14.90;51.60
10300;DHT22;5195;48.562;9.192;2023-04-24T02:04:01;14.40;53.00
10300;DHT22;5195;48.562;9.192;2023-04-24T02:06:27;14.40;52.40
10300;DHT22;5195;48.562;9.192;2023-04-24T02:08:52;14.60;52.50
10300;DHT22;5195;48.562;9.192;2023-04-24T02:11:18;14.60;52.30
10300;DHT22;5195;48.562;9.192;2023-04-24T02:13:43;14.40;52.50
10300;DHT22;5195;48.562;9.192;2023-04-24T02:16:10;14.60;52.80
10300;DHT22;5195;48.562;9.192;2023-04-24T02:18:36;14.70;52.60
10300;DHT22;5195;48.562;9.192;2023-04-24T02:21:01;14.80;52.20
10300;DHT22;5195;48.562;9.192;2023-04-24T02:23:27;15.10;52.00
10300;DHT22;5195;48.562;9.192;2023-04-24T02:25:53;15.40;51.50
10300;DHT22;5195;48.562;9.192;2023-04-24T02:28:18;15.20;51.50
10300;DHT22;5195;48.562;9.192;2023-04-24T02:30:43;15.20;51.90
10300;DHT22;5195;48.562;9.192;2023-04-24T02:33:09;15.00;51.90
10300;DHT22;5195;48.562;9.192;2023-04-24T02:35:35;15.10;52.70
10300;DHT22;5195;48.562;9.192;2023-04-24T02:38:00;14.90;52.60
10300;DHT22;5195;48.562;9.192;2023-04-24T02:40:26;14.60;53.00
10300;DHT22;5195;48.562;9.192;2023-04-24T02:42:52;14.60;53.70
10300;DHT22;5195;48.562;9.192;2023-04-24T02:45:17;14.50;53.20
10300;DHT22;5195;48.562;9.192;2023-04-24T02:47:43;14.30;53.60
10300;DHT22;5195;48.562;9.192;2023-04-24T02:50:09;14.10;53.80
10300;DHT22;5195;48.562;9.192;2023-04-24T02:52:35;13.80;54.40
10300;DHT22;5195;48.562;9.192;2023-04-24T02:55:01;13.80;54.40
10300;DHT22;5195;48.562;9.192;2023-04-24T02:57:26;14.10;54.30
10300;DHT22;5195;48.562;9.192;2023-04-24T02:59:52;14.10;54.00
10300;DHT22;5195;48.562;9.192;2023-04-24T03:02:17;14.00;54.10
10300;DHT22;5195;48.562;9.192;2023-04-24T03:04:44;13.90;54.40
10300;DHT22;5195;48.562;9.192;2023-04-24T03:07:10;14.10;54.00
10300;DHT22;5195;48.562;9.192;2023-04-24T03:09:35;14.20;53.70
10300;DHT22;5195;48.562;9.192;2023-04-24T03:12:01;14.10;53.90
10300;DHT22;5195;48.562;9.192;2023-04-24T03:14:26;14.00;54.00
10300;DHT22;5195;48.562;9.192;2023-04-24T03:16:52;13.90;54.20
10300;DHT22;5195;48.562;9.192;2023-04-24T03:19:18;14.10;55.00
10300;DHT22;5195;48.562;9.192;2023-04-24T03:21:44;14.10;54.70
10300;DHT22;5195;48.562;9.192;2023-04-24T03:24:10;13.90;54.90
10300;DHT22;5195;48.562;9.192;2023-04-24T03:26:35;14.10;55.80
10300;DHT22;5195;48.562;9.192;2023-04-24T03:29:01;14.40;55.60
10300;DHT22;5195;48.562;9.192;2023-04-24T03:31:26;14.30;55.20
10300;DHT22;5195;48.562;9.192;2023-04-24T03:33:53;14.60;55.60
10300;DHT22;5195;48.562;9.192;2023-04-24T03:36:18;14.60;55.60
10300;DHT22;5195;48.562;9.192;2023-04-24T03:38:44;14.80;55.30
10300;DHT22;5195;48.562;9.192;2023-04-24T03:41:09;14.90;55.00
10300;DHT22;5195;48.562;9.192;2023-04-24T03:43:36;15.00;54.40
10300;DHT22;5195;48.562;9.192;2023-04-24T03:46:01;15.00;54.40
10300;DHT22;5195;48.562;9.192;2023-04-24T03:48:27;14.70;54.50
10300;DHT22;5195;48.562;9.192;2023-04-24T03:50:52;14.30;55.20
10300;DHT22;5195;48.562;9.192;2023-04-24T03:53:18;13.90;55.70
10300;DHT22;5195;48.562;9.192;2023-04-24T03:55:43;13.60;56.10
10300;DHT22;5195;48.562;9.192;2023-04-24T03:58:10;13.20;56.90
10300;DHT22;5195;48.562;9.192;2023-04-24T04:00:35;13.20;56.90
10300;DHT22;5195;48.562;9.192;2023-04-24T04:03:01;13.10;57.30
10300;DHT22;5195;48.562;9.192;2023-04-24T04:05:26;13.30;57.30
10300;DHT22;5195;48.562;9.192;2023-04-24T04:07:54;13.70;56.60
10300;DHT22;5195;48.562;9.192;2023-04-24T04:10:19;14.00;55.70
10300;DHT22;5195;48.562;9.192;2023-04-24T04:12:45;14.20;55.10
10300;DHT22;5195;48.562;9.192;2023-04-24T04:15:10;14.00;55.10
10300;DHT22;5195;48.562;9.192;2023-04-24T04:17:37;13.70;55.80
10300;DHT22;5195;48.562;9.192;2023-04-24T04:20:03;13.40;56.30
10300;DHT22;5195;48.562;9.192;2023-04-24T04:22:28;13.50;56.60
10300;DHT22;5195;48.562;9.192;2023-04-24T04:24:54;13.80;56.00
10300;DHT22;5195;48.562;9.192;2023-04-24T04:27:20;14.10;55.60
10300;DHT22;5195;48.562;9.192;2023-04-24T04:29:49;14.00;55.60
10300;DHT22;5195;48.562;9.192;2023-04-24T04:32:15;14.10;55.70
10300;DHT22;5195;48.562;9.192;2023-04-24T04:34:40;14.00;55.70
10300;DHT22;5195;48.562;9.192;2023-04-24T04:37:06;14.00;55.70
10300;DHT22;5195;48.562;9.192;2023-04-24T04:39:31;14.30;55.20
10300;DHT22;5195;48.562;9.192;2023-04-24T04:41:57;14.60;54.70
10300;DHT22;5195;48.562;9.192;2023-04-24T04:44:22;14.70;54.20
10300;DHT22;5195;48.562;9.192;2023-04-24T04:46:48;14.90;54.10
10300;DHT22;5195;48.562;9.192;2023-04-24T04:49:14;15.00;53.90
10300;DHT22;5195;48.562;9.192;2023-04-24T04:51:40;15.00;54.00
10300;DHT22;5195;48.562;9.192;2023-04-24T04:54:06;15.00;53.70
10300;DHT22;5195;48.562;9.192;2023-04-24T04:56:33;14.50;54.00
10300;DHT22;5195;48.562;9.192;2023-04-24T04:58:58;14.50;54.00
10300;DHT22;5195;48.562;9.192;2023-04-24T05:01:25;14.20;54.20
10300;DHT22;5195;48.562;9.192;2023-04-24T05:03:50;13.90;54.90
10300;DHT22;5195;48.562;9.192;2023-04-24T05:06:16;13.90;55.60
10300;DHT22;5195;48.562;9.192;2023-04-24T05:08:44;13.90;56.40
10300;DHT22;5195;48.562;9.192;2023-04-24T05:11:09;13.90;56.30
10300;DHT22;5195;48.562;9.192;2023-04-24T05:13:35;14.10;56.10
10300;DHT22;5195;48.562;9.192;2023-04-24T05:16:00;14.00;56.00
10300;DHT22;5195;48.562;9.192;2023-04-24T05:18:26;14.00;56.40
10300;DHT22;5195;48.562;9.192;2023-04-24T05:20:51;13.90;56.40
10300;DHT22;5195;48.562;9.192;2023-04-24T05:23:17;13.60;56.80
10300;DHT22;5195;48.562;9.192;2023-04-24T05:25:44;13.70;57.20
10300;DHT22;5195;48.562;9.192;2023-04-24T05:28:10;13.40;57.40
10300;DHT22;5195;48.562;9.192;2023-04-24T05:30:36;13.60;57.40
10300;DHT22;5195;48.562;9.192;2023-04-24T05:33:02;13.60;57.40
10300;DHT22;5195;48.562;9.192;2023-04-24T05:35:27;13.60;57.20
10300;DHT22;5195;48.562;9.192;2023-04-24T05:37:53;13.40;57.40
10300;DHT22;5195;48.562;9.192;2023-04-24T05:40:19;13.20;57.50
10300;DHT22;5195;48.562;9.192;2023-04-24T05:42:45;12.90;57.70
10300;DHT22;5195;48.562;9.192;2023-04-24T05:45:10;12.80;57.60
10300;DHT22;5195;48.562;9.192;2023-04-24T05:47:37;12.70;57.70
10300;DHT22;5195;48.562;9.192;2023-04-24T05:50:02;12.60;57.90
10300;DHT22;5195;48.562;9.192;2023-04-24T05:52:29;12.90;57.20
10300;DHT22;5195;48.562;9.192;2023-04-24T05:54:55;13.00;57.00
10300;DHT22;5195;48.562;9.192;2023-04-24T05:57:20;13.00;57.20
10300;DHT22;5195;48.562;9.192;2023-04-24T05:59:46;13.20;56.80
10300;DHT22;5195;48.562;9.192;2023-04-24T06:02:12;13.40;56.80
10300;DHT22;5195;48.562;9.192;2023-04-24T06:04:38;13.40;56.70
10300;DHT22;5195;48.562;9.192;2023-04-24T06:07:03;13.80;55.90
10300;DHT22;5195;48.562;9.192;2023-04-24T06:09:29;14.10;55.40
10300;DHT22;5195;48.562;9.192;2023-04-24T06:11:54;14.00;55.40
10300;DHT22;5195;48.562;9.192;2023-04-24T06:14:21;13.60;56.40
10300;DHT22;5195;48.562;9.192;2023-04-24T06:16:46;13.50;56.30
10300;DHT22;5195;48.562;9.192;2023-04-24T06:19:12;13.40;56.70
10300;DHT22;5195;48.562;9.192;2023-04-24T06:21:37;13.30;57.00
10300;DHT22;5195;48.562;9.192;2023-04-24T06:24:03;13.50;56.70
10300;DHT22;5195;48.562;9.192;2023-04-24T06:26:29;13.90;56.20
10300;DHT22;5195;48.562;9.192;2023-04-24T06:28:55;13.90;56.20
10300;DHT22;5195;48.562;9.192;2023-04-24T06:31:20;13.80;56.70
10300;DHT22;5195;48.562;9.192;2023-04-24T06:33:46;13.90;56.60
10300;DHT22;5195;48.562;9.192;2023-04-24T06:36:12;14.30;55.80
10300;DHT22;5195;48.562;9.192;2023-04-24T06:38:39;14.00;55.60
10300;DHT22;5195;48.562;9.192;2023-04-24T06:41:05;14.00;55.60
10300;DHT22;5195;48.562;9.192;2023-04-24T06:43:31;14.20;55.50
10300;DHT22;5195;48.562;9.192;2023-04-24T06:45:57;14.50;54.40
10300;DHT22;5195;48.562;9.192;2023-04-24T06:48:22;14.50;54.40
10300;DHT22;5195;48.562;9.192;2023-04-24T06:50:48;14.60;54.90
10300;DHT22;5195;48.562;9.192;2023-04-24T06:53:13;14.60;55.50
10300;DHT22;5195;48.562;9.192;2023-04-24T06:55:40;15.00;54.00
10300;DHT22;5195;48.562;9.192;2023-04-24T06:58:06;15.50;53.70
10300;DHT22;5195;48.562;9.192;2023-04-24T07:00:31;16.00;51.70
10300;DHT22;5195;48.562;9.192;2023-04-24T07:02:57;16.40;50.70
10300;DHT22;5195;48.562;9.192;2023-04-24T07:05:22;16.80;49.00
10300;DHT22;5195;48.562;9.192;2023-04-24T07:07:49;16.90;50.70
10300;DHT22;5195;48.562;9.192;2023-04-24T07:10:14;16.90;50.70
10300;DHT22;5195;48.562;9.192;2023-04-24T07:12:40;16.80;51.40
10300;DHT22;5195;48.562;9.192;2023-04-24T07:15:07;17.10;50.30
10300;DHT22;5195;48.562;9.192;2023-04-24T07:17:33;17.10;50.30
10300;DHT22;5195;48.562;9.192;2023-04-24T07:20:00;17.20;50.00
10300;DHT22;5195;48.562;9.192;2023-04-24T07:22:25;17.00;49.90
10300;DHT22;5195;48.562;9.192;2023-04-24T07:24:51;16.60;50.00
10300;DHT22;5195;48.562;9.192;2023-04-24T07:27:18;16.70;48.50
10300;DHT22;5195;48.562;9.192;2023-04-24T07:29:43;16.80;48.10
10300;DHT22;5195;48.562;9.192;2023-04-24T07:32:09;16.80;48.30
10300;DHT22;5195;48.562;9.192;2023-04-24T07:34:34;16.50;48.90
10300;DHT22;5195;48.562;9.192;2023-04-24T07:37:00;16.40;49.00
10300;DHT22;5195;48.562;9.192;2023-04-24T07:39:26;16.90;48.50
10300;DHT22;5195;48.562;9.192;2023-04-24T07:41:52;16.90;48.50
10300;DHT22;5195;48.562;9.192;2023-04-24T07:44:19;17.20;47.50
10300;DHT22;5195;48.562;9.192;2023-04-24T07:46:44;17.50;48.60
10300;DHT22;5195;48.562;9.192;2023-04-24T07:49:10;17.80;46.10
10300;DHT22;5195;48.562;9.192;2023-04-24T07:51:35;17.60;46.00
10300;DHT22;5195;48.562;9.192;2023-04-24T07:54:01;17.50;44.50
10300;DHT22;5195;48.562;9.192;2023-04-24T07:56:27;17.40;44.40
10300;DHT22;5195;48.562;9.192;2023-04-24T07:58:53;17.40;44.40
10300;DHT22;5195;48.562;9.192;2023-04-24T08:01:18;17.10;45.20
10300;DHT22;5195;48.562;9.192;2023-04-24T08:03:44;17.20;43.30
10300;DHT22;5195;48.562;9.192;2023-04-24T08:06:09;17.40;42.70
10300;DHT22;5195;48.562;9.192;2023-04-24T08:08:35;17.30;43.70
10300;DHT22;5195;48.562;9.192;2023-04-24T08:11:00;17.40;41.90
10300;DHT22;5195;48.562;9.192;2023-04-24T08:13:26;17.60;41.20
10300;DHT22;5195;48.562;9.192;2023-04-24T08:15:52;17.60;41.60
10300;DHT22;5195;48.562;9.192;2023-04-24T08:18:18;17.60;41.60
10300;DHT22;5195;48.562;9.192;2023-04-24T08:20:43;17.60;42.20
10300;DHT22;5195;48.562;9.192;2023-04-24T08:23:09;17.60;43.00
10300;DHT22;5195;48.562;9.192;2023-04-24T08:25:36;17.80;39.60
10300;DHT22;5195;48.562;9.192;2023-04-24T08:28:03;18.40;38.30
10300;DHT22;5195;48.562;9.192;2023-04-24T08:30:28;18.40;38.30
10300;DHT22;5195;48.562;9.192;2023-04-24T08:32:53;18.40;39.40
10300;DHT22;5195;48.562;9.192;2023-04-24T08:35:21;18.20;37.10
10300;DHT22;5195;48.562;9.192;2023-04-24T08:37:46;18.10;36.90
10300;DHT22;5195;48.562;9.192;2023-04-24T08:40:13;18.00;38.50
10300;DHT22;5195;48.562;9.192;2023-04-24T08:42:38;17.80;39.60
10300;DHT22;5195;48.562;9.192;2023-04-24T08:45:03;18.00;38.10
10300;DHT22;5195;48.562;9.192;2023-04-24T08:47:29;18.00;39.50
10300;DHT22;5195;48.562;9.192;2023-04-24T08:49:56;17.80;39.70
10300;DHT22;5195;48.562;9.192;2023-04-24T08:52:22;17.60;40.00
10300;DHT22;5195;48.562;9.192;2023-04-24T08:54:49;17.70;40.10
10300;DHT22;5195;48.562;9.192;2023-04-24T08:57:16;17.60;40.10
10300;DHT22;5195;48.562;9.192;2023-04-24T08:59:41;17.60;39.80
10300;DHT22;5195;48.562;9.192;2023-04-24T09:02:09;17.80;36.10
10300;DHT22;5195;48.562;9.192;2023-04-24T09:04:33;18.30;34.80
10300;DHT22;5195;48.562;9.192;2023-04-24T09:07:00;18.70;35.40
10300;DHT22;5195;48.562;9.192;2023-04-24T09:09:26;18.70;36.30
10300;DHT22;5195;48.562;9.192;2023-04-24T09:11:52;18.60;34.00
10300;DHT22;5195;48.562;9.192;2023-04-24T09:14:17;18.50;35.90
10300;DHT22;5195;48.562;9.192;2023-04-24T09:16:43;18.60;35.60
10300;DHT22;5195;48.562;9.192;2023-04-24T09:19:09;18.90;35.00
10300;DHT22;5195;48.562;9.192;2023-04-24T09:21:35;18.80;34.90
10300;DHT22;5195;48.562;9.192;2023-04-24T09:24:01;19.00;33.40
10300;DHT22;5195;48.562;9.192;2023-04-24T09:26:28;19.00;35.30
10300;DHT22;5195;48.562;9.192;2023-04-24T09:28:51;19.00;34.10
10300;DHT22;5195;48.562;9.192;2023-04-24T09:31:17;19.00;34.70
10300;DHT22;5195;48.562;9.192;2023-04-24T09:33:58;18.50;36.10
10300;DHT22;5195;48.562;9.192;2023-04-24T09:36:33;18.50;36.10
10300;DHT22;5195;48.562;9.192;2023-04-24T09:39:05;18.70;33.70
10300;DHT22;5195;48.562;9.192;2023-04-24T09:41:32;18.70;36.10
10300;DHT22;5195;48.562;9.192;2023-04-24T09:43:56;18.70;36.00
10300;DHT22;5195;48.562;9.192;2023-04-24T09:46:28;18.30;36.30
10300;DHT22;5195;48.562;9.192;2023-04-24T09:48:48;18.10;34.90
10300;DHT22;5195;48.562;9.192;2023-04-24T09:51:13;18.00;34.80
10300;DHT22;5195;48.562;9.192;2023-04-24T09:53:39;17.80;36.10
10300;DHT22;5195;48.562;9.192;2023-04-24T09:56:09;17.90;35.50
10300;DHT22;5195;48.562;9.192;2023-04-24T09:58:35;18.20;33.10
10300;DHT22;5195;48.562;9.192;2023-04-24T10:01:00;18.50;32.40
10300;DHT22;5195;48.562;9.192;2023-04-24T10:03:26;18.60;32.10
10300;DHT22;5195;48.562;9.192;2023-04-24T10:05:51;18.20;33.80
10300;DHT22;5195;48.562;9.192;2023-04-24T10:08:17;17.90;34.50
10300;DHT22;5195;48.562;9.192;2023-04-24T10:10:44;17.90;35.20
10300;DHT22;5195;48.562;9.192;2023-04-24T10:13:10;18.80;34.20
10300;DHT22;5195;48.562;9.192;2023-04-24T10:15:35;18.80;34.20
10300;DHT22;5195;48.562;9.192;2023-04-24T10:18:00;19.20;33.40
10300;DHT22;5195;48.562;9.192;2023-04-24T10:20:27;19.50;31.90
10300;DHT22;5195;48.562;9.192;2023-04-24T10:22:53;19.30;32.50
10300;DHT22;5195;48.562;9.192;2023-04-24T10:25:18;19.30;31.90
10300;DHT22;5195;48.562;9.192;2023-04-24T10:27:44;19.20;32.70
10300;DHT22;5195;48.562;9.192;2023-04-24T10:30:11;19.40;32.80
10300;DHT22;5195;48.562;9.192;2023-04-24T10:32:36;19.70;30.50
10300;DHT22;5195;48.562;9.192;2023-04-24T10:35:01;19.70;32.20
10300;DHT22;5195;48.562;9.192;2023-04-24T10:37:27;19.00;32.80
10300;DHT22;5195;48.562;9.192;2023-04-24T10:39:53;19.00;32.80
10300;DHT22;5195;48.562;9.192;2023-04-24T10:42:19;19.10;31.90
10300;DHT22;5195;48.562;9.192;2023-04-24T10:44:44;19.30;30.50
10300;DHT22;5195;48.562;9.192;2023-04-24T10:47:13;19.20;31.80
10300;DHT22;5195;48.562;9.192;2023-04-24T10:49:38;19.00;32.50
10300;DHT22;5195;48.562;9.192;2023-04-24T10:52:04;18.70;33.00
10300;DHT22;5195;48.562;9.192;2023-04-24T10:54:46;18.80;32.50
10300;DHT22;5195;48.562;9.192;2023-04-24T10:59:43;19.20;33.10
10300;DHT22;5195;48.562;9.192;2023-04-24T11:02:09;19.10;33.80
10300;DHT22;5195;48.562;9.192;2023-04-24T11:04:34;19.30;33.00
10300;DHT22;5195;48.562;9.192;2023-04-24T11:07:03;19.20;33.10
10300;DHT22;5195;48.562;9.192;2023-04-24T11:09:32;18.90;33.70
10300;DHT22;5195;48.562;9.192;2023-04-24T11:12:07;18.90;32.50
10300;DHT22;5195;48.562;9.192;2023-04-24T11:17:31;18.80;33.10
10300;DHT22;5195;48.562;9.192;2023-04-24T11:20:10;18.70;34.30
10300;DHT22;5195;48.562;9.192;2023-04-24T11:22:31;18.40;34.60
10300;DHT22;5195;48.562;9.192;2023-04-24T11:24:56;18.10;35.20
10300;DHT22;5195;48.562;9.192;2023-04-24T11:27:23;18.40;33.70
10300;DHT22;5195;48.562;9.192;2023-04-24T11:32:29;18.60;32.50
10300;DHT22;5195;48.562;9.192;2023-04-24T11:37:43;18.10;34.90
10300;DHT22;5195;48.562;9.192;2023-04-24T11:40:11;18.10;33.50
10300;DHT22;5195;48.562;9.192;2023-04-24T11:42:37;18.00;33.90
10300;DHT22;5195;48.562;9.192;2023-04-24T11:45:06;18.10;33.10
10300;DHT22;5195;48.562;9.192;2023-04-24T11:47:31;17.90;34.30
10300;DHT22;5195;48.562;9.192;2023-04-24T11:49:54;17.20;35.70
10300;DHT22;5195;48.562;9.192;2023-04-24T11:52:21;17.20;35.80
10300;DHT22;5195;48.562;9.192;2023-04-24T11:54:47;17.00;36.00
10300;DHT22;5195;48.562;9.192;2023-04-24T11:57:12;16.80;36.50
10300;DHT22;5195;48.562;9.192;2023-04-24T11:59:38;17.00;35.00
10300;DHT22;5195;48.562;9.192;2023-04-24T12:02:03;17.10;35.80
10300;DHT22;5195;48.562;9.192;2023-04-24T12:04:37;17.30;34.30
10300;DHT22;5195;48.562;9.192;2023-04-24T12:07:02;17.70;34.40
10300;DHT22;5195;48.562;9.192;2023-04-24T12:09:27;17.70;34.80
10300;DHT22;5195;48.562;9.192;2023-04-24T12:11:57;17.60;35.50
10300;DHT22;5195;48.562;9.192;2023-04-24T12:14:23;17.20;35.80
10300;DHT22;5195;48.562;9.192;2023-04-24T12:16:50;17.20;35.80
10300;DHT22;5195;48.562;9.192;2023-04-24T12:19:36;17.30;33.90
10300;DHT22;5195;48.562;9.192;2023-04-24T12:22:11;17.70;33.90
10300;DHT22;5195;48.562;9.192;2023-04-24T12:27:35;17.30;35.80
10300;DHT22;5195;48.562;9.192;2023-04-24T12:30:12;17.00;36.20
10300;DHT22;5195;48.562;9.192;2023-04-24T12:32:49;16.90;36.40
10300;DHT22;5195;48.562;9.192;2023-04-24T12:35:24;16.80;36.40
10300;DHT22;5195;48.562;9.192;2023-04-24T12:38:10;16.70;37.10
10300;DHT22;5195;48.562;9.192;2023-04-24T12:40:46;16.30;37.40
10300;DHT22;5195;48.562;9.192;2023-04-24T12:43:21;16.30;37.40
10300;DHT22;5195;48.562;9.192;2023-04-24T12:45:59;16.40;36.20
10300;DHT22;5195;48.562;9.192;2023-04-24T12:48:34;16.40;36.10
10300;DHT22;5195;48.562;9.192;2023-04-24T12:51:11;16.60;36.40
10300;DHT22;5195;48.562;9.192;2023-04-24T12:53:46;16.60;36.10
10300;DHT22;5195;48.562;9.192;2023-04-24T12:56:24;17.00;35.70
10300;DHT22;5195;48.562;9.192;2023-04-24T12:58:59;17.00;35.30
10300;DHT22;5195;48.562;9.192;2023-04-24T13:01:35;17.40;34.80
10300;DHT22;5195;48.562;9.192;2023-04-24T13:04:11;17.80;33.80
10300;DHT22;5195;48.562;9.192;2023-04-24T13:06:46;18.00;33.50
10300;DHT22;5195;48.562;9.192;2023-04-24T13:09:25;17.90;34.60
10300;DHT22;5195;48.562;9.192;2023-04-24T13:11:57;17.60;35.30
10300;DHT22;5195;48.562;9.192;2023-04-24T13:14:33;17.60;34.60
10300;DHT22;5195;48.562;9.192;2023-04-24T13:17:09;17.50;35.20
10300;DHT22;5195;48.562;9.192;2023-04-24T13:19:44;17.60;34.60
10300;DHT22;5195;48.562;9.192;2023-04-24T13:22:21;17.50;34.40
10300;DHT22;5195;48.562;9.192;2023-04-24T13:24:56;17.50;34.40
10300;DHT22;5195;48.562;9.192;2023-04-24T13:27:32;17.50;35.10
10300;DHT22;5195;48.562;9.192;2023-04-24T13:30:10;17.50;34.40
10300;DHT22;5195;48.562;9.192;2023-04-24T13:32:45;17.50;34.40
10300;DHT22;5195;48.562;9.192;2023-04-24T13:35:22;17.80;34.70
10300;DHT22;5195;48.562;9.192;2023-04-24T13:37:58;17.80;34.60
10300;DHT22;5195;48.562;9.192;2023-04-24T13:40:33;17.80;34.10
10300;DHT22;5195;48.562;9.192;2023-04-24T13:43:09;17.70;33.50
10300;DHT22;5195;48.562;9.192;2023-04-24T13:45:45;17.60;33.40
10300;DHT22;5195;48.562;9.192;2023-04-24T13:48:20;17.70;33.30
10300;DHT22;5195;48.562;9.192;2023-04-24T13:50:57;17.80;33.30
10300;DHT22;5195;48.562;9.192;2023-04-24T13:53:32;17.80;33.30
10300;DHT22;5195;48.562;9.192;2023-04-24T13:56:08;17.50;34.10
10300;DHT22;5195;48.562;9.192;2023-04-24T13:58:43;17.10;34.90
10300;DHT22;5195;48.562;9.192;2023-04-24T14:01:20;17.40;33.20
10300;DHT22;5195;48.562;9.192;2023-04-24T14:03:55;17.40;33.20
10300;DHT22;5195;48.562;9.192;2023-04-24T14:06:31;17.50;33.30
10300;DHT22;5195;48.562;9.192;2023-04-24T14:09:08;17.60;33.00
10300;DHT22;5195;48.562;9.192;2023-04-24T14:11:44;16.80;34.60
10300;DHT22;5195;48.562;9.192;2023-04-24T14:14:20;16.80;34.60
10300;DHT22;5195;48.562;9.192;2023-04-24T14:16:55;16.90;34.10
10300;DHT22;5195;48.562;9.192;2023-04-24T14:19:31;16.80;34.40
10300;DHT22;5195;48.562;9.192;2023-04-24T14:22:06;17.00;34.30
10300;DHT22;5195;48.562;9.192;2023-04-24T14:24:42;16.90;34.50
10300;DHT22;5195;48.562;9.192;2023-04-24T14:27:19;17.00;34.00
10300;DHT22;5195;48.562;9.192;2023-04-24T14:29:55;17.00;33.90
10300;DHT22;5195;48.562;9.192;2023-04-24T14:32:31;17.00;33.90
10300;DHT22;5195;48.562;9.192;2023-04-24T14:35:07;16.90;34.70
10300;DHT22;5195;48.562;9.192;2023-04-24T14:37:43;17.20;33.00
10300;DHT22;5195;48.562;9.192;2023-04-24T14:40:19;17.20;32.40
10300;DHT22;5195;48.562;9.192;2023-04-24T14:42:54;17.30;32.20
10300;DHT22;5195;48.562;9.192;2023-04-24T14:45:30;17.00;32.70
10300;DHT22;5195;48.562;9.192;2023-04-24T14:48:05;16.60;33.30
10300;DHT22;5195;48.562;9.192;2023-04-24T14:50:41;16.30;33.90
10300;DHT22;5195;48.562;9.192;2023-04-24T14:53:16;16.20;34.60
10300;DHT22;5195;48.562;9.192;2023-04-24T14:55:53;16.10;34.80
10300;DHT22;5195;48.562;9.192;2023-04-24T14:58:28;16.30;33.90
10300;DHT22;5195;48.562;9.192;2023-04-24T15:01:03;16.60;33.40
10300;DHT22;5195;48.562;9.192;2023-04-24T15:03:39;16.50;33.70
10300;DHT22;5195;48.562;9.192;2023-04-24T15:06:16;16.80;34.20
10300;DHT22;5195;48.562;9.192;2023-04-24T15:08:53;17.10;33.20
10300;DHT22;5195;48.562;9.192;2023-04-24T15:11:28;17.00;33.10
10300;DHT22;5195;48.562;9.192;2023-04-24T15:14:04;16.80;33.30
10300;DHT22;5195;48.562;9.192;2023-04-24T15:16:41;16.40;33.90
10300;DHT22;5195;48.562;9.192;2023-04-24T15:19:19;16.10;34.40
10300;DHT22;5195;48.562;9.192;2023-04-24T15:21:56;16.30;33.90
10300;DHT22;5195;48.562;9.192;2023-04-24T15:24:32;16.70;34.10
10300;DHT22;5195;48.562;9.192;2023-04-24T15:27:11;16.90;33.20
10300;DHT22;5195;48.562;9.192;2023-04-24T15:29:47;16.80;33.40
10300;DHT22;5195;48.562;9.192;2023-04-24T15:32:22;16.50;33.90
10300;DHT22;5195;48.562;9.192;2023-04-24T15:34:58;16.50;33.40
10300;DHT22;5195;48.562;9.192;2023-04-24T15:37:34;16.40;33.90
10300;DHT22;5195;48.562;9.192;2023-04-24T15:40:10;16.30;35.00
10300;DHT22;5195;48.562;9.192;2023-04-24T15:42:47;16.30;34.30
10300;DHT22;5195;48.562;9.192;2023-04-24T15:45:23;16.70;34.10
10300;DHT22;5195;48.562;9.192;2023-04-24T15:47:58;16.70;34.10
10300;DHT22;5195;48.562;9.192;2023-04-24T15:50:34;16.80;34.70
10300;DHT22;5195;48.562;9.192;2023-04-24T15:53:10;17.10;33.50
10300;DHT22;5195;48.562;9.192;2023-04-24T15:55:50;17.30;33.10
10300;DHT22;5195;48.562;9.192;2023-04-24T15:58:26;17.00;32.80
10300;DHT22;5195;48.562;9.192;2023-04-24T16:01:01;17.00;32.80
10300;DHT22;5195;48.562;9.192;2023-04-24T16:03:37;16.60;33.70